Terminal Aerodrome Forecast
Issued by NWS

Home | Current Version | Previous Version | Text Only | Print | Product List | Glossary On
Versions: 1 2 3 4 5 6 7 8 9 10 11 12 13 14 15 16 17 18 19 20 21 22 23 24 25 26 27
000
FTUS43 KDLH 301511 AAB
TAFHYR
TAF AMD
KHYR 301511Z 3015/0112 02004KT 2SM -SN BR OVC008
      TEMPO 3015/3016 4SM -SN BR OVC035
     FM301600 06004KT 5SM -DZSN BR OVC015
     FM302000 01004KT 4SM BR VCSH OVC010
     FM010000 34003KT 5SM -SN BR OVC010=

USA.gov is the U.S. government's official web portal to all federal, state and local government web resources and services.